Time;durP1;ratioP1;P1;durP2;ratioP2;P2;SDS_P1;SDS_P2;PMS_P1;PMS_P2;Temp;Humidity;BMP_temperature;BMP_pressure;BME280_temperature;BME280_humidity;BME280_pressure;Samples;Min_cycle;Max_cycle;Signal;HPM_P1;HPM_P2
2023/02/09 00:01:54;;;;;;;24.45;12.65;;;;;;;-2.15;75.31;103129.78;4996574;28;20197;-70
2023/02/09 00:04:26;;;;;;;21.48;12.68;;;;;;;-2.29;75.75;103120.63;4980494;28;20194;-68
2023/02/09 00:07:05;;;;;;;23.60;12.90;;;;;;;-2.35;75.55;103117.38;5004941;28;20281;-69
2023/02/09 00:09:51;;;;;;;21.05;13.40;;;;;;;-2.27;75.96;103110.78;5009421;28;20222;-70
2023/02/09 00:15:18;;;;;;;24.42;14.57;;;;;;;-2.39;75.87;103116.63;4991930;28;20207;-70
2023/02/09 00:17:54;;;;;;;26.88;14.95;;;;;;;-2.42;77.14;103118.56;5006315;28;20727;-70
2023/02/09 00:20:27;;;;;;;22.85;15.10;;;;;;;-2.27;76.75;103116.09;4996446;28;20269;-69
2023/02/09 00:23:04;;;;;;;27.15;13.85;;;;;;;-2.40;75.98;103120.22;5025498;28;20226;-69
2023/02/09 00:25:36;;;;;;;25.52;13.27;;;;;;;-2.43;76.24;103109.75;4995763;28;20198;-69
2023/02/09 00:28:07;;;;;;;18.70;13.82;;;;;;;-2.34;76.29;103104.03;5023081;28;20210;-70
2023/02/09 00:30:39;;;;;;;27.58;14.00;;;;;;;-2.37;75.92;103106.81;5012345;28;20221;-68
2023/02/09 00:33:10;;;;;;;24.35;12.68;;;;;;;-2.47;76.58;103094.88;5010873;28;20209;-69
2023/02/09 00:35:45;;;;;;;20.50;13.95;;;;;;;-2.49;76.12;103094.09;5000098;28;20668;-69
2023/02/09 00:38:19;;;;;;;25.45;13.93;;;;;;;-2.54;76.47;103093.41;5014217;28;20635;-69
2023/02/09 00:40:56;;;;;;;19.80;12.13;;;;;;;-2.50;77.07;103094.13;4978288;28;20202;-69
2023/02/09 00:43:28;;;;;;;21.75;12.85;;;;;;;-2.55;76.27;103083.72;5009817;28;20214;-69
2023/02/09 00:46:04;;;;;;;24.75;12.52;;;;;;;-2.49;77.30;103093.22;4979328;28;20243;-69
2023/02/09 00:48:37;;;;;;;21.80;12.02;;;;;;;-2.46;75.67;103083.34;4992276;28;20285;-69
2023/02/09 00:51:10;;;;;;;29.63;13.60;;;;;;;-2.72;76.20;103091.53;5017166;28;20205;-69
2023/02/09 00:53:47;;;;;;;27.52;13.90;;;;;;;-2.64;77.59;103081.47;5014289;28;20197;-70
2023/02/09 00:56:20;;;;;;;24.27;13.68;;;;;;;-2.55;77.08;103083.72;4979027;28;20226;-69
2023/02/09 00:58:52;;;;;;;19.50;12.70;;;;;;;-2.59;77.55;103090.09;4980365;28;20214;-70
2023/02/09 01:01:23;;;;;;;26.50;13.15;;;;;;;-2.54;76.45;103085.47;5015691;28;20187;-69
2023/02/09 01:03:59;;;;;;;22.63;12.40;;;;;;;-2.57;76.53;103075.00;5000781;28;20202;-69
2023/02/09 01:06:36;;;;;;;29.45;14.73;;;;;;;-2.60;76.94;103069.81;5018450;28;20293;-69
2023/02/09 01:09:09;;;;;;;19.75;13.32;;;;;;;-2.70;77.05;103073.75;4989388;28;20603;-70
2023/02/09 01:11:41;;;;;;;22.13;12.70;;;;;;;-2.75;77.63;103073.09;5006919;28;20214;-69
2023/02/09 01:14:16;;;;;;;22.85;11.60;;;;;;;-2.77;77.29;103077.63;5033133;28;20201;-69
2023/02/09 01:16:47;;;;;;;32.40;15.00;;;;;;;-2.78;77.69;103086.47;5024400;28;20233;-69
2023/02/09 01:19:25;;;;;;;18.50;12.07;;;;;;;-2.94;78.97;103074.78;5034181;28;20178;-68
2023/02/09 01:22:01;;;;;;;37.47;14.43;;;;;;;-2.74;78.12;103066.88;5031238;28;20190;-68
2023/02/09 01:24:34;;;;;;;25.25;13.32;;;;;;;-2.82;77.41;103064.56;4998473;28;20211;-69
2023/02/09 01:27:07;;;;;;;22.98;12.75;;;;;;;-2.77;76.70;103067.00;5017851;28;20237;-68
2023/02/09 01:29:40;;;;;;;22.80;13.32;;;;;;;-2.81;76.93;103070.72;5033811;28;20220;-68
2023/02/09 01:32:13;;;;;;;26.25;14.88;;;;;;;-2.81;77.20;103065.41;5020919;28;20266;-68
2023/02/09 01:34:47;;;;;;;23.27;13.75;;;;;;;-2.80;77.20;103056.50;5030303;28;20201;-69
2023/02/09 01:37:21;;;;;;;22.27;12.52;;;;;;;-2.91;77.01;103048.16;5032499;28;20231;-69
2023/02/09 01:39:56;;;;;;;27.30;13.10;;;;;;;-2.91;77.49;103048.16;5041498;28;20201;-69
2023/02/09 01:42:35;;;;;;;20.95;12.88;;;;;;;-2.88;78.41;103038.31;5029851;28;20237;-68
2023/02/09 01:45:24;;;;;;;25.88;13.35;;;;;;;-2.67;77.50;103021.50;5031740;28;20217;-69
2023/02/09 01:48:03;;;;;;;20.38;11.85;;;;;;;-2.78;77.37;103023.75;4996801;28;20287;-68
2023/02/09 01:50:37;;;;;;;16.58;11.02;;;;;;;-2.57;77.75;103015.81;5030908;28;20206;-70
2023/02/09 01:53:10;;;;;;;15.55;10.65;;;;;;;-2.76;77.08;103013.09;5003024;28;20209;-69
2023/02/09 01:55:52;;;;;;;25.50;13.45;;;;;;;-2.70;77.29;103015.44;4995581;28;20198;-70
2023/02/09 01:58:28;;;;;;;18.77;11.77;;;;;;;-2.70;78.28;103010.16;5008144;28;20233;-69
2023/02/09 02:01:02;;;;;;;21.42;11.60;;;;;;;-2.74;76.00;102992.66;5031471;28;20720;-69
2023/02/09 02:03:35;;;;;;;26.08;13.20;;;;;;;-2.70;76.16;103003.06;5019997;28;20199;-69
2023/02/09 02:06:18;;;;;;;20.15;12.30;;;;;;;-2.66;76.07;102995.84;5016679;28;20603;-70
2023/02/09 02:08:55;;;;;;;20.75;12.63;;;;;;;-2.77;75.97;102987.50;4975743;28;20205;-69
2023/02/09 02:11:34;;;;;;;22.52;13.40;;;;;;;-2.77;76.83;102982.22;5026032;28;20207;-68
2023/02/09 02:14:08;;;;;;;18.27;12.15;;;;;;;-2.87;76.98;102991.47;5009802;28;20194;-69
2023/02/09 02:16:53;;;;;;;26.05;12.80;;;;;;;-2.90;76.35;102987.16;5006820;28;20232;-69
2023/02/09 02:20:17;;;;;;;24.50;11.63;;;;;;;-2.72;76.46;102982.88;5024461;28;20194;-69
2023/02/09 02:23:00;;;;;;;20.13;10.80;;;;;;;-2.79;75.91;102973.44;4971887;28;20194;-70
2023/02/09 02:26:02;;;;;;;15.60;10.10;;;;;;;-2.84;75.90;102968.34;4969217;28;20195;-69
2023/02/09 02:29:14;;;;;;;22.40;11.65;;;;;;;-2.91;76.83;102964.25;4975321;28;20195;-70
2023/02/09 02:32:23;;;;;;;24.55;12.02;;;;;;;-2.86;77.29;102972.88;5011010;28;20198;-69
2023/02/09 02:35:17;;;;;;;19.15;10.88;;;;;;;-2.95;76.56;102962.63;5001170;28;20281;-71
2023/02/09 02:38:01;;;;;;;14.50;11.02;;;;;;;-2.88;75.95;102952.66;5014656;28;20233;-69
2023/02/09 02:40:43;;;;;;;16.20;11.23;;;;;;;-2.95;76.22;102956.50;5001453;28;20190;-68
2023/02/09 02:43:35;;;;;;;19.17;11.05;;;;;;;-2.88;75.90;102957.94;5022508;28;20238;-68
2023/02/09 02:46:16;;;;;;;19.63;11.98;;;;;;;-2.92;76.03;102953.72;4993869;28;20231;-69
2023/02/09 02:48:55;;;;;;;21.92;13.10;;;;;;;-2.96;77.43;102946.81;5020364;28;20644;-69
2023/02/09 02:51:32;;;;;;;28.83;12.65;;;;;;;-2.93;77.32;102944.91;5013881;28;20206;-69
2023/02/09 02:54:06;;;;;;;25.13;11.38;;;;;;;-2.77;75.43;102939.81;5008626;28;20268;-70
2023/02/09 02:56:40;;;;;;;22.08;12.35;;;;;;;-2.81;76.67;102938.22;5009283;28;20229;-69
2023/02/09 02:59:16;;;;;;;16.98;11.63;;;;;;;-2.86;75.83;102933.13;5015175;28;20225;-70
2023/02/09 03:01:55;;;;;;;23.73;12.05;;;;;;;-2.97;76.82;102931.84;5003727;28;20190;-71
2023/02/09 03:04:28;;;;;;;18.33;11.45;;;;;;;-3.05;75.76;102929.53;5027170;28;20213;-69
2023/02/09 03:07:07;;;;;;;19.10;11.77;;;;;;;-3.01;76.70;102927.63;4998874;28;20264;-69
2023/02/09 03:09:37;;;;;;;21.20;11.63;;;;;;;-2.99;75.84;102931.03;5019472;28;20638;-70
2023/02/09 03:12:17;;;;;;;21.77;10.57;;;;;;;-2.76;76.50;102936.22;4980105;28;20203;-69
2023/02/09 03:15:04;;;;;;;24.65;11.32;;;;;;;-2.81;74.61;102931.09;5015766;28;20193;-68
2023/02/09 03:17:46;;;;;;;17.38;10.93;;;;;;;-2.78;75.61;102940.72;4999025;28;20591;-69
2023/02/09 03:20:31;;;;;;;19.63;11.95;;;;;;;-2.81;75.15;102930.28;5013323;28;20220;-69
2023/02/09 03:23:08;;;;;;;15.73;9.88;;;;;;;-2.84;74.41;102928.59;5009483;28;20226;-69
2023/02/09 03:25:44;;;;;;;22.55;13.23;;;;;;;-2.89;74.67;102927.94;5018783;28;20712;-69
2023/02/09 03:28:22;;;;;;;22.15;11.48;;;;;;;-2.90;74.92;102914.75;4998569;28;20214;-69
2023/02/09 03:30:56;;;;;;;18.30;10.38;;;;;;;-3.05;74.93;102920.72;4980673;28;20200;-70
2023/02/09 03:33:31;;;;;;;14.95;10.73;;;;;;;-2.97;74.62;102911.53;5014483;28;20203;-69
2023/02/09 03:36:07;;;;;;;20.08;10.85;;;;;;;-2.95;75.09;102903.50;5025059;28;20248;-70
2023/02/09 03:38:40;;;;;;;15.32;8.77;;;;;;;-2.95;74.53;102900.88;5014726;28;20194;-69
2023/02/09 03:41:13;;;;;;;16.95;8.75;;;;;;;-3.06;75.89;102896.03;5008187;28;20190;-69
2023/02/09 03:46:34;;;;;;;24.30;9.80;;;;;;;-2.97;74.46;102900.06;5021788;28;20250;-70
2023/02/09 03:49:05;;;;;;;13.82;9.68;;;;;;;-2.90;75.81;102896.19;5025331;28;20199;-69
2023/02/09 03:51:40;;;;;;;16.38;11.13;;;;;;;-2.91;75.56;102895.38;5011394;28;20487;-69
2023/02/09 03:54:13;;;;;;;16.13;8.32;;;;;;;-3.11;75.70;102893.56;5019420;28;20213;-68
2023/02/09 03:56:45;;;;;;;15.32;9.43;;;;;;;-3.23;75.86;102894.09;5027884;28;20244;-69
2023/02/09 03:59:16;;;;;;;14.50;9.23;;;;;;;-3.18;75.81;102892.09;5030602;28;20210;-69
2023/02/09 04:01:47;;;;;;;19.85;10.43;;;;;;;-3.09;75.36;102880.25;5016422;28;20183;-68
2023/02/09 04:04:17;;;;;;;19.33;10.45;;;;;;;-3.12;75.03;102885.69;5015723;28;20231;-69
2023/02/09 04:06:51;;;;;;;20.10;10.68;;;;;;;-3.12;75.65;102881.25;5037282;28;20205;-69
2023/02/09 04:09:23;;;;;;;14.20;8.70;;;;;;;-3.12;74.66;102881.25;4993627;28;20195;-70
2023/02/09 04:11:57;;;;;;;19.60;10.65;;;;;;;-3.12;74.69;102888.34;5017645;28;20198;-69
2023/02/09 04:14:30;;;;;;;14.63;9.18;;;;;;;-3.20;74.55;102883.38;5011476;28;20183;-69
2023/02/09 04:17:03;;;;;;;19.00;10.35;;;;;;;-3.16;75.83;102884.97;5015056;28;20226;-68
2023/02/09 04:19:36;;;;;;;22.48;10.23;;;;;;;-3.17;75.63;102885.88;4999360;28;20191;-69
2023/02/09 04:22:08;;;;;;;14.80;9.68;;;;;;;-3.28;75.48;102888.13;5013368;28;20191;-68
2023/02/09 04:24:43;;;;;;;22.33;11.57;;;;;;;-3.27;75.76;102879.25;5016997;28;20294;-69
2023/02/09 04:27:13;;;;;;;18.35;9.23;;;;;;;-3.41;75.86;102876.34;4978493;28;20644;-69
2023/02/09 04:29:44;;;;;;;19.80;10.85;;;;;;;-3.06;76.61;102869.53;5025100;28;20202;-69
2023/02/09 04:32:18;;;;;;;18.83;10.10;;;;;;;-3.13;75.16;102874.22;4978869;28;20206;-69
2023/02/09 04:34:50;;;;;;;18.48;11.77;;;;;;;-3.12;76.08;102870.66;4982110;28;20256;-68
2023/02/09 04:37:21;;;;;;;19.73;11.50;;;;;;;-3.20;75.32;102870.13;4984659;28;20214;-69
2023/02/09 04:39:54;;;;;;;15.63;9.27;;;;;;;-3.26;76.08;102878.34;5010658;28;20197;-70
2023/02/09 04:42:26;;;;;;;19.30;10.80;;;;;;;-3.16;75.76;102879.66;4989196;28;20198;-69
2023/02/09 04:45:00;;;;;;;20.30;9.82;;;;;;;-3.39;76.07;102879.78;5027805;28;20342;-70
2023/02/09 04:47:32;;;;;;;19.77;10.75;;;;;;;-3.49;76.46;102867.84;5018406;28;20225;-68
2023/02/09 04:50:02;;;;;;;20.75;12.30;;;;;;;-3.41;76.79;102868.38;4982479;28;20202;-68
2023/02/09 04:52:34;;;;;;;19.13;11.02;;;;;;;-3.52;76.55;102867.97;4989856;28;20570;-68
2023/02/09 04:55:09;;;;;;;19.42;12.18;;;;;;;-3.61;76.48;102868.34;5010421;28;20209;-69
2023/02/09 05:00:28;;;;;;;15.48;12.43;;;;;;;-3.52;77.43;102866.19;5008836;28;20190;-69
2023/02/09 05:03:03;;;;;;;19.23;10.68;;;;;;;-3.48;76.03;102861.63;4990313;28;20199;-68
2023/02/09 05:05:39;;;;;;;21.05;11.43;;;;;;;-3.35;77.16;102861.97;5012907;28;20210;-69
2023/02/09 05:08:13;;;;;;;20.80;11.95;;;;;;;-3.52;75.86;102865.31;4972207;28;20245;-69
2023/02/09 05:10:52;;;;;;;17.45;10.25;;;;;;;-3.42;76.57;102860.50;5011505;28;20212;-70
2023/02/09 05:13:24;;;;;;;19.48;11.85;;;;;;;-3.41;75.46;102860.44;4978767;28;20209;-71
2023/02/09 05:15:55;;;;;;;19.58;11.45;;;;;;;-3.33;75.84;102858.31;5001062;28;20222;-69
2023/02/09 05:18:27;;;;;;;15.20;9.50;;;;;;;-3.34;76.45;102863.72;5019293;28;20212;-71
2023/02/09 05:20:58;;;;;;;21.85;11.75;;;;;;;-3.51;76.19;102864.41;5018096;28;20195;-69
2023/02/09 05:23:31;;;;;;;21.23;11.38;;;;;;;-3.42;75.71;102863.16;5011873;28;20229;-70
2023/02/09 05:26:06;;;;;;;17.98;11.50;;;;;;;-3.42;75.48;102853.41;4976407;28;20226;-70
2023/02/09 05:28:39;;;;;;;22.00;13.93;;;;;;;-3.53;75.77;102855.66;5010215;28;20756;-70
2023/02/09 05:31:11;;;;;;;16.25;10.05;;;;;;;-3.45;76.22;102840.31;5012536;28;20695;-70
2023/02/09 05:33:43;;;;;;;18.05;11.15;;;;;;;-3.43;75.26;102849.03;5017224;28;20257;-69
2023/02/09 05:36:19;;;;;;;27.75;12.77;;;;;;;-3.39;74.87;102834.78;5014796;28;20224;-69
2023/02/09 05:38:58;;;;;;;13.00;8.73;;;;;;;-3.53;75.89;102837.97;5020472;28;20258;-70
2023/02/09 05:44:29;;;;;;;22.67;12.88;;;;;;;-3.53;76.10;102837.13;5002243;28;20187;-70
2023/02/09 05:47:33;;;;;;;25.20;13.27;;;;;;;-3.63;75.43;102841.09;5003027;28;20744;-69
2023/02/09 05:50:06;;;;;;;19.42;9.63;;;;;;;-3.33;75.11;102838.94;4985752;28;20213;-71
2023/02/09 05:52:36;;;;;;;23.80;13.10;;;;;;;-3.47;75.71;102839.53;5016461;28;20255;-70
2023/02/09 05:55:09;;;;;;;19.00;11.77;;;;;;;-3.54;77.11;102846.00;5014397;28;20291;-71
2023/02/09 05:57:45;;;;;;;21.65;13.55;;;;;;;-3.47;74.94;102838.66;5009203;28;20265;-70
2023/02/09 06:00:16;;;;;;;17.98;12.18;;;;;;;-3.51;75.01;102835.28;4983431;28;20198;-71
2023/02/09 06:02:49;;;;;;;18.83;10.43;;;;;;;-3.56;74.95;102848.72;4993493;28;20224;-69
2023/02/09 06:05:20;;;;;;;19.95;11.07;;;;;;;-3.50;74.87;102858.19;4976812;28;20242;-70
2023/02/09 06:07:54;;;;;;;21.63;11.98;;;;;;;-3.47;74.80;102852.75;5017274;28;20578;-70
2023/02/09 06:10:27;;;;;;;14.55;10.07;;;;;;;-3.41;73.79;102854.28;5009785;28;20298;-68
2023/02/09 06:13:04;;;;;;;14.55;9.48;;;;;;;-3.40;74.32;102859.53;4988240;28;20194;-68
2023/02/09 06:15:36;;;;;;;33.70;12.13;;;;;;;-3.37;74.06;102848.78;5018519;28;20285;-68
2023/02/09 06:18:09;;;;;;;20.15;12.07;;;;;;;-3.37;73.70;102848.78;5024221;28;20198;-68
2023/02/09 06:20:40;;;;;;;19.42;12.05;;;;;;;-3.41;73.86;102846.34;4993874;28;20186;-70
2023/02/09 06:23:11;;;;;;;19.25;10.30;;;;;;;-3.41;73.52;102852.50;4978894;28;20735;-68
2023/02/09 06:25:44;;;;;;;23.77;10.55;;;;;;;-3.39;73.87;102861.25;4987283;28;20712;-70
2023/02/09 06:28:17;;;;;;;20.70;12.30;;;;;;;-3.28;73.37;102848.41;4994663;28;20694;-69
2023/02/09 06:30:53;;;;;;;17.15;10.63;;;;;;;-3.31;73.42;102859.13;4981704;28;20199;-70
2023/02/09 06:33:25;;;;;;;22.02;12.70;;;;;;;-3.24;73.36;102857.06;4999875;28;20195;-69
2023/02/09 06:35:59;;;;;;;22.08;10.95;;;;;;;-3.33;73.22;102858.31;5024930;28;20221;-68
2023/02/09 06:38:32;;;;;;;18.02;9.48;;;;;;;-3.20;73.33;102859.53;5010783;28;20195;-69
2023/02/09 06:41:05;;;;;;;17.17;10.85;;;;;;;-3.17;72.47;102862.06;5001518;28;20206;-69
2023/02/09 06:43:37;;;;;;;17.23;12.30;;;;;;;-3.19;71.97;102858.59;4976053;28;20206;-69
2023/02/09 06:46:08;;;;;;;23.73;13.77;;;;;;;-3.23;72.43;102861.44;4983275;28;20226;-69
2023/02/09 06:48:43;;;;;;;19.20;11.38;;;;;;;-3.20;72.52;102861.31;4983362;28;20710;-69
2023/02/09 06:51:27;;;;;;;16.23;10.98;;;;;;;-3.23;72.71;102861.44;4997886;28;20285;-68
2023/02/09 06:53:58;;;;;;;20.58;11.40;;;;;;;-3.19;72.11;102861.25;5008703;28;20197;-69
2023/02/09 06:56:29;;;;;;;25.02;11.32;;;;;;;-3.15;72.07;102856.69;5006091;28;20564;-69
2023/02/09 06:59:02;;;;;;;23.15;12.60;;;;;;;-3.15;71.78;102864.63;5005896;28;20699;-69
2023/02/09 07:01:32;;;;;;;24.73;12.73;;;;;;;-3.09;72.25;102859.91;4985176;28;20582;-68
2023/02/09 07:04:03;;;;;;;26.35;10.90;;;;;;;-3.03;72.13;102865.88;5007372;28;20305;-68
2023/02/09 07:06:34;;;;;;;31.05;11.05;;;;;;;-3.13;72.26;102863.63;5019955;28;20599;-70
2023/02/09 07:09:04;;;;;;;18.38;10.60;;;;;;;-3.03;71.51;102876.47;4993668;28;20207;-69
2023/02/09 07:11:35;;;;;;;14.85;10.52;;;;;;;-3.03;72.35;102882.63;5008982;28;20195;-69
2023/02/09 07:14:13;;;;;;;21.30;12.82;;;;;;;-3.04;72.52;102874.75;4961059;28;20281;-69
2023/02/09 07:16:48;;;;;;;21.05;9.75;;;;;;;-2.96;72.70;102875.28;4975925;28;20214;-69
2023/02/09 07:19:20;;;;;;;19.42;10.30;;;;;;;-2.97;71.61;102863.84;4992163;28;20501;-69
2023/02/09 07:21:50;;;;;;;20.00;13.18;;;;;;;-2.95;71.93;102869.06;5011047;28;20234;-69
2023/02/09 07:24:23;;;;;;;30.45;15.60;;;;;;;-2.86;71.33;102860.72;5008512;28;20211;-69
2023/02/09 07:26:56;;;;;;;22.10;13.57;;;;;;;-2.74;70.89;102860.16;5008688;28;20238;-69
2023/02/09 07:29:31;;;;;;;22.65;10.75;;;;;;;-2.73;71.48;102856.56;4982226;28;20213;-67
2023/02/09 07:32:03;;;;;;;26.33;11.95;;;;;;;-2.71;70.47;102862.69;5000526;28;20209;-68
2023/02/09 07:34:36;;;;;;;25.75;13.30;;;;;;;-2.61;70.93;102863.13;4994638;28;20742;-68
2023/02/09 07:37:07;;;;;;;13.60;9.95;;;;;;;-2.58;69.79;102858.53;5008327;28;20221;-70
2023/02/09 07:39:38;;;;;;;22.13;12.15;;;;;;;-2.55;70.32;102866.34;5001660;28;20217;-68
2023/02/09 07:42:11;;;;;;;19.88;12.35;;;;;;;-2.30;69.97;102866.94;4974890;28;20195;-68
2023/02/09 07:45:06;;;;;;;22.70;11.68;;;;;;;-2.21;69.74;102869.16;4978653;28;20206;-70
2023/02/09 07:47:39;;;;;;;15.63;9.50;;;;;;;-2.12;68.81;102859.91;5008816;28;20306;-69
2023/02/09 07:50:12;;;;;;;19.17;10.68;;;;;;;-2.22;67.84;102870.06;4982220;28;20194;-69
2023/02/09 07:52:44;;;;;;;19.48;11.43;;;;;;;-2.23;68.65;102857.75;5014618;28;20772;-71
2023/02/09 07:55:14;;;;;;;21.25;11.98;;;;;;;-2.13;68.24;102852.03;5024781;28;20257;-70
2023/02/09 07:57:45;;;;;;;20.50;11.30;;;;;;;-2.08;68.41;102855.31;5015566;28;20218;-70
2023/02/09 08:00:19;;;;;;;22.58;10.10;;;;;;;-2.12;67.84;102859.03;4983543;28;20197;-69
2023/02/09 08:02:50;;;;;;;18.88;12.20;;;;;;;-1.96;68.31;102857.38;5013288;28;20214;-68
2023/02/09 08:05:31;;;;;;;19.80;10.70;;;;;;;-1.86;66.52;102856.00;5011439;28;20210;-68
2023/02/09 08:08:03;;;;;;;19.77;12.13;;;;;;;-1.81;66.91;102848.69;4988010;28;20226;-68
2023/02/09 08:10:36;;;;;;;23.60;11.55;;;;;;;-1.69;66.06;102848.06;4987553;28;20199;-69
2023/02/09 08:13:06;;;;;;;22.00;11.88;;;;;;;-1.70;65.54;102841.06;5005079;28;20671;-68
2023/02/09 08:15:44;;;;;;;14.75;10.70;;;;;;;-1.57;65.82;102836.84;4994834;28;20253;-69
2023/02/09 08:18:19;;;;;;;23.63;13.27;;;;;;;-1.58;65.28;102844.88;5016247;28;20190;-71
2023/02/09 08:20:53;;;;;;;15.57;12.30;;;;;;;-1.53;65.09;102843.72;5015727;28;20255;-69
2023/02/09 08:23:28;;;;;;;17.67;12.32;;;;;;;-1.46;64.68;102852.25;4992016;28;20209;-69
2023/02/09 08:26:04;;;;;;;18.90;11.10;;;;;;;-1.38;65.16;102845.59;5019299;28;20222;-69
2023/02/09 08:28:34;;;;;;;18.67;10.75;;;;;;;-1.25;64.25;102837.84;5018871;28;20269;-69
2023/02/09 08:31:16;;;;;;;19.63;12.40;;;;;;;-1.21;63.51;102833.25;5021637;28;20191;-69
2023/02/09 08:33:50;;;;;;;22.15;10.50;;;;;;;-1.06;63.62;102835.09;4993956;28;20240;-69
2023/02/09 08:36:21;;;;;;;15.27;9.85;;;;;;;-1.09;62.45;102836.13;5025334;28;20722;-69
2023/02/09 08:38:54;;;;;;;21.23;11.77;;;;;;;-0.98;62.77;102840.88;5021669;28;20203;-68
2023/02/09 08:41:26;;;;;;;20.17;10.32;;;;;;;-0.88;62.39;102831.50;5013513;28;20211;-68
2023/02/09 08:43:56;;;;;;;15.45;9.65;;;;;;;-0.93;62.64;102834.41;4978911;28;20195;-69
2023/02/09 08:46:28;;;;;;;16.77;10.57;;;;;;;-0.65;62.32;102841.75;4996642;28;20237;-68
2023/02/09 08:48:58;;;;;;;17.90;10.88;;;;;;;-0.65;61.71;102836.44;4979599;28;20702;-69
2023/02/09 08:51:29;;;;;;;24.65;10.23;;;;;;;-0.53;61.42;102841.06;5010672;28;20209;-70
2023/02/09 08:53:59;;;;;;;22.60;10.80;;;;;;;-0.39;60.46;102836.81;5004888;28;20226;-70
2023/02/09 08:56:29;;;;;;;15.70;9.68;;;;;;;-0.54;61.04;102831.41;5010490;28;20241;-69
2023/02/09 08:59:03;;;;;;;19.95;11.85;;;;;;;-0.18;60.98;102839.13;4977864;28;20210;-68
2023/02/09 09:01:35;;;;;;;15.07;10.70;;;;;;;-0.14;59.92;102831.84;5009361;28;20215;-69
2023/02/09 09:04:10;;;;;;;24.88;11.38;;;;;;;0.14;59.28;102834.69;4995325;28;20210;-69
2023/02/09 09:06:40;;;;;;;13.30;8.70;;;;;;;0.13;58.59;102840.94;4988481;28;20223;-70
2023/02/09 09:09:10;;;;;;;14.45;11.05;;;;;;;0.22;58.85;102836.88;5014755;28;20202;-70
2023/02/09 09:11:40;;;;;;;21.90;11.57;;;;;;;0.19;58.46;102832.59;4986632;28;20198;-67
2023/02/09 09:14:11;;;;;;;19.35;11.43;;;;;;;0.25;58.47;102832.22;4996082;28;20197;-69
2023/02/09 09:16:45;;;;;;;19.17;11.82;;;;;;;0.53;58.69;102825.31;4980746;28;20214;-68
2023/02/09 09:19:17;;;;;;;16.23;10.13;;;;;;;0.64;57.84;102822.84;5012680;28;20194;-69
2023/02/09 09:21:47;;;;;;;17.98;10.32;;;;;;;0.72;57.24;102824.13;5007965;28;20249;-69
2023/02/09 09:24:18;;;;;;;18.73;10.15;;;;;;;0.68;56.75;102825.25;4978849;28;20205;-70
2023/02/09 09:26:51;;;;;;;17.88;10.45;;;;;;;0.61;56.29;102821.25;4982642;28;20226;-69
2023/02/09 09:29:23;;;;;;;17.85;10.50;;;;;;;0.75;56.42;102820.41;5001990;28;20213;-68
2023/02/09 09:31:57;;;;;;;20.10;10.82;;;;;;;0.91;56.13;102810.53;5003588;28;20634;-68
2023/02/09 09:34:27;;;;;;;20.50;11.10;;;;;;;0.99;56.10;102807.41;5013404;28;20237;-68
2023/02/09 09:36:57;;;;;;;18.67;10.63;;;;;;;1.18;55.54;102807.97;5014475;28;20211;-70
2023/02/09 09:39:28;;;;;;;22.75;11.60;;;;;;;0.98;55.78;102822.53;5011568;28;20203;-69
2023/02/09 09:42:01;;;;;;;19.45;11.52;;;;;;;1.14;55.61;102802.00;5014013;28;20199;-70
2023/02/09 09:44:35;;;;;;;18.73;11.07;;;;;;;1.22;54.77;102794.34;5019638;28;20210;-69
2023/02/09 09:47:14;;;;;;;17.02;10.13;;;;;;;1.20;54.67;102796.28;4990744;28;20218;-69
2023/02/09 09:49:44;;;;;;;15.75;9.93;;;;;;;1.26;54.92;102793.22;5001802;28;20232;-69
2023/02/09 09:52:20;;;;;;;17.90;11.20;;;;;;;1.34;54.54;102792.75;4994509;28;20196;-70
2023/02/09 09:54:52;;;;;;;22.00;12.18;;;;;;;1.44;54.36;102799.22;4996101;28;20676;-70
2023/02/09 09:57:27;;;;;;;17.85;11.40;;;;;;;1.34;54.60;102781.22;5014868;28;20249;-69
2023/02/09 09:59:58;;;;;;;20.60;11.95;;;;;;;1.58;54.61;102783.19;5013023;28;20195;-69
2023/02/09 10:02:33;;;;;;;18.15;9.88;;;;;;;1.68;53.16;102780.78;4969216;28;20199;-68
2023/02/09 10:05:17;;;;;;;18.60;11.65;;;;;;;1.85;53.29;102780.53;5017773;28;20280;-69
2023/02/09 10:07:55;;;;;;;22.88;12.20;;;;;;;2.16;52.78;102785.59;5003591;28;20203;-69
2023/02/09 10:10:37;;;;;;;17.35;8.88;;;;;;;1.99;51.41;102779.63;4984017;28;20205;-70
2023/02/09 10:13:16;;;;;;;27.52;9.02;;;;;;;2.10;52.04;102775.28;5026533;28;20202;-70
2023/02/09 10:15:49;;;;;;;18.42;11.07;;;;;;;2.37;51.04;102769.91;4988299;28;20699;-70
2023/02/09 10:18:24;;;;;;;19.25;11.10;;;;;;;2.19;50.89;102766.66;5015153;28;20198;-70
2023/02/09 10:20:57;;;;;;;15.45;9.27;;;;;;;2.22;51.00;102775.44;5011184;28;20212;-70
2023/02/09 10:23:36;;;;;;;13.88;9.25;;;;;;;2.39;50.66;102772.50;5017730;28;20195;-69
2023/02/09 10:26:19;;;;;;;16.02;8.77;;;;;;;2.58;50.61;102765.78;5005605;28;20217;-70
2023/02/09 10:28:54;;;;;;;18.35;9.35;;;;;;;2.70;49.16;102764.09;4991012;28;20748;-67
2023/02/09 10:31:29;;;;;;;26.95;10.15;;;;;;;2.49;49.66;102762.88;4982333;28;20205;-68
2023/02/09 10:34:05;;;;;;;13.10;8.85;;;;;;;2.63;50.02;102754.78;4984203;28;20197;-69
2023/02/09 10:36:47;;;;;;;18.48;11.00;;;;;;;2.86;49.23;102743.34;5015498;28;20228;-68
2023/02/09 10:39:23;;;;;;;14.95;7.57;;;;;;;2.74;48.94;102740.69;4999923;28;20187;-69
2023/02/09 10:41:59;;;;;;;11.25;7.72;;;;;;;2.42;49.06;102748.25;5013826;28;20300;-69
2023/02/09 10:44:35;;;;;;;15.13;7.95;;;;;;;2.37;49.09;102748.53;4984063;28;20202;-68
2023/02/09 10:47:26;;;;;;;18.25;9.80;;;;;;;2.59;49.37;102739.91;5011864;28;20222;-68
2023/02/09 10:50:06;;;;;;;19.65;9.70;;;;;;;2.76;49.12;102723.53;5024920;28;20191;-68
2023/02/09 10:52:42;;;;;;;17.13;10.20;;;;;;;2.93;48.49;102719.72;5013002;28;20210;-67
2023/02/09 10:55:21;;;;;;;11.75;8.18;;;;;;;2.93;48.28;102703.66;5024747;28;20201;-67
2023/02/09 10:58:03;;;;;;;19.55;10.15;;;;;;;2.72;48.29;102689.13;4992454;28;20226;-68
2023/02/09 11:00:43;;;;;;;14.38;8.45;;;;;;;3.17;48.04;102679.66;5025951;28;20193;-68
2023/02/09 11:03:18;;;;;;;13.20;7.57;;;;;;;3.17;47.70;102685.84;4995822;28;20198;-68
2023/02/09 11:06:00;;;;;;;19.48;9.27;;;;;;;2.96;48.01;102682.88;5006377;28;20221;-69
2023/02/09 11:08:42;;;;;;;13.90;9.20;;;;;;;2.70;48.02;102691.06;4988638;28;20211;-68
2023/02/09 11:11:28;;;;;;;13.60;8.23;;;;;;;2.74;48.24;102689.88;5008265;28;20274;-68
2023/02/09 11:14:01;;;;;;;9.88;7.43;;;;;;;2.79;48.20;102691.28;5008444;28;20206;-68
2023/02/09 11:17:12;;;;;;;15.18;8.82;;;;;;;2.97;48.38;102681.94;5009323;28;20720;-70
2023/02/09 11:20:03;;;;;;;15.95;11.30;;;;;;;2.87;48.08;102694.25;4978333;28;20185;-68
2023/02/09 11:23:00;;;;;;;11.73;8.25;;;;;;;2.71;47.88;102685.59;5013622;28;20242;-69
2023/02/09 11:25:35;;;;;;;16.48;9.35;;;;;;;2.73;47.74;102686.34;4980187;28;20279;-68
2023/02/09 11:28:28;;;;;;;17.42;8.82;;;;;;;2.95;48.27;102683.84;4993252;28;20221;-67
2023/02/09 11:31:39;;;;;;;14.55;8.95;;;;;;;3.24;47.87;102675.56;5010443;28;20199;-69
2023/02/09 11:34:34;;;;;;;16.40;8.93;;;;;;;3.26;47.15;102668.28;4926818;29;20294;-68
2023/02/09 11:37:20;;;;;;;18.08;9.80;;;;;;;3.22;47.19;102672.13;4993055;28;20222;-67
2023/02/09 11:39:57;;;;;;;10.95;9.13;;;;;;;3.15;47.19;102666.38;4973575;28;20698;-69
2023/02/09 11:42:46;;;;;;;16.20;9.90;;;;;;;3.53;47.53;102676.13;5014488;28;20205;-68
2023/02/09 11:45:29;;;;;;;21.27;11.60;;;;;;;3.51;46.13;102668.19;5007709;28;20207;-68
2023/02/09 11:48:07;;;;;;;15.40;8.73;;;;;;;3.74;46.59;102663.78;5009975;28;20201;-70
2023/02/09 11:50:47;;;;;;;14.30;7.93;;;;;;;3.76;45.60;102662.72;5003117;28;20197;-67
2023/02/09 11:53:29;;;;;;;12.90;8.38;;;;;;;3.53;45.69;102660.06;5021291;28;20328;-69
2023/02/09 11:56:05;;;;;;;11.43;7.65;;;;;;;3.60;45.89;102651.44;5021674;28;20218;-70
2023/02/09 11:58:46;;;;;;;15.43;8.95;;;;;;;3.70;46.00;102660.50;5019368;28;20198;-68
2023/02/09 12:01:51;;;;;;;12.93;7.85;;;;;;;3.58;46.00;102656.06;5012113;28;20190;-68
2023/02/09 12:04:31;;;;;;;11.15;7.68;;;;;;;3.93;46.73;102654.25;5019612;28;20230;-69
2023/02/09 12:07:05;;;;;;;18.40;6.95;;;;;;;4.06;45.41;102646.16;5003082;28;20633;-68